Time;durP1;ratioP1;P1;durP2;ratioP2;P2;SDS_P1;SDS_P2;PMS_P1;PMS_P2;Temp;Humidity;BMP_temperature;BMP_pressure;BME280_temperature;BME280_humidity;BME280_pressure;Samples;Min_cycle;Max_cycle;Signal;HPM_P1;HPM_P2
2021/05/31 00:01:13;;;;;;;9.60;4.07;;;10.80;1.00;;;;;;5051082;28;20468;-71
2021/05/31 00:03:39;;;;;;;7.50;4.27;;;;;;;;;;5055133;28;20402;-72
2021/05/31 00:06:06;;;;;;;5.50;4.03;;;10.80;1.00;;;;;;5054841;28;20666;-71
2021/05/31 00:08:32;;;;;;;6.43;3.80;;;10.80;1.00;;;;;;5054796;28;20450;-72
2021/05/31 00:10:58;;;;;;;8.23;3.83;;;10.70;1.00;;;;;;5045022;28;20263;-72
2021/05/31 00:13:24;;;;;;;5.47;3.80;;;;;;;;;;5034420;28;20399;-72
2021/05/31 00:15:59;;;;;;;7.10;3.93;;;10.60;1.00;;;;;;5043163;28;20490;-71
2021/05/31 00:18:29;;;;;;;6.80;4.27;;;10.60;1.00;;;;;;5034660;28;20395;-73
2021/05/31 00:21:00;;;;;;;10.17;3.50;;;10.50;1.00;;;;;;5034443;28;20481;-73
2021/05/31 00:23:42;;;;;;;8.57;4.30;;;10.40;1.00;;;;;;5034569;28;20403;-74
2021/05/31 00:26:18;;;;;;;4.27;3.07;;;10.30;1.00;;;;;;5035082;28;20419;-73
2021/05/31 00:28:53;;;;;;;4.70;3.50;;;10.30;1.00;;;;;;5034343;28;20487;-73
2021/05/31 00:31:24;;;;;;;5.00;3.13;;;10.20;1.00;;;;;;5034724;28;20788;-71
2021/05/31 00:33:49;;;;;;;6.10;3.90;;;10.10;1.00;;;;;;5034219;28;20753;-71
2021/05/31 00:36:30;;;;;;;6.00;3.50;;;10.00;1.00;;;;;;5034247;28;20426;-72
2021/05/31 00:38:55;;;;;;;8.60;4.00;;;10.00;1.00;;;;;;5034561;28;20187;-72
2021/05/31 00:41:23;;;;;;;5.27;3.43;;;9.90;1.00;;;;;;5034291;28;20479;-71
2021/05/31 00:43:49;;;;;;;12.23;3.73;;;;;;;;;;5034497;28;20256;-72
2021/05/31 00:46:18;;;;;;;8.63;3.83;;;9.80;1.00;;;;;;5034403;28;20388;-73
2021/05/31 00:48:54;;;;;;;7.40;3.90;;;9.80;1.00;;;;;;5040690;28;20953;-73
2021/05/31 00:51:27;;;;;;;6.43;3.70;;;9.70;1.00;;;;;;5054162;28;20409;-73
2021/05/31 00:54:35;;;;;;;5.83;3.53;;;9.70;1.00;;;;;;5054653;28;20877;-73
2021/05/31 00:57:12;;;;;;;5.47;3.10;;;9.60;1.00;;;;;;5041148;28;20424;-73
2021/05/31 00:59:38;;;;;;;5.57;3.30;;;9.50;1.00;;;;;;5034334;28;20410;-73
2021/05/31 01:02:04;;;;;;;4.23;3.17;;;9.50;1.00;;;;;;5033722;28;20505;-73
2021/05/31 01:04:35;;;;;;;8.10;4.27;;;9.50;1.00;;;;;;5033709;28;20771;-73
2021/05/31 01:07:42;;;;;;;5.77;4.40;;;9.50;1.00;;;;;;5034071;28;20517;-73
2021/05/31 01:10:18;;;;;;;6.80;4.10;;;9.40;1.00;;;;;;5036529;28;20411;-73
2021/05/31 01:13:06;;;;;;;6.13;3.50;;;9.40;1.00;;;;;;5038780;28;20488;-73
2021/05/31 01:15:34;;;;;;;12.00;3.60;;;9.30;1.00;;;;;;5034046;28;20426;-73
2021/05/31 01:18:19;;;;;;;6.50;4.03;;;9.30;1.00;;;;;;5034127;28;20396;-72
2021/05/31 01:20:55;;;;;;;6.53;3.70;;;9.20;1.00;;;;;;5032553;28;20419;-72
2021/05/31 01:23:23;;;;;;;4.90;3.43;;;9.20;1.00;;;;;;5033836;28;20449;-72
2021/05/31 01:26:10;;;;;;;6.23;3.80;;;9.20;1.00;;;;;;5053000;28;20457;-72
2021/05/31 01:28:45;;;;;;;6.80;4.33;;;9.10;1.00;;;;;;5053283;28;20977;-72
2021/05/31 01:31:17;;;;;;;8.03;3.63;;;9.10;1.00;;;;;;5053544;28;20402;-72
2021/05/31 01:33:50;;;;;;;10.00;4.50;;;9.10;1.00;;;;;;5041767;28;20509;-73
2021/05/31 01:36:47;;;;;;;6.53;3.70;;;9.00;1.00;;;;;;5053979;28;20399;-73
2021/05/31 01:39:25;;;;;;;7.03;3.67;;;9.00;1.00;;;;;;5051318;28;20423;-74
2021/05/31 01:42:11;;;;;;;8.80;3.53;;;9.00;1.00;;;;;;5053385;28;20456;-73
2021/05/31 01:44:54;;;;;;;6.43;3.77;;;9.00;1.00;;;;;;5053698;28;20410;-73
2021/05/31 01:47:25;;;;;;;6.33;3.83;;;9.00;1.00;;;;;;5052430;28;20414;-73
2021/05/31 01:49:51;;;;;;;6.63;4.00;;;9.00;1.00;;;;;;5052020;28;20421;-73
2021/05/31 01:52:17;;;;;;;5.77;3.53;;;9.00;1.00;;;;;;5053542;28;20394;-73
2021/05/31 01:54:44;;;;;;;9.20;4.57;;;;;;;;;;5053620;28;20447;-73
2021/05/31 01:57:19;;;;;;;8.43;4.60;;;8.90;1.00;;;;;;5053416;28;20489;-73
2021/05/31 01:59:48;;;;;;;5.07;3.33;;;8.90;1.00;;;;;;5053261;28;20439;-73
2021/05/31 02:02:16;;;;;;;14.37;3.90;;;8.90;1.00;;;;;;5042810;28;20446;-72
2021/05/31 02:04:42;;;;;;;5.30;3.70;;;;;;;;;;5033226;28;20488;-72
2021/05/31 02:07:07;;;;;;;5.37;3.60;;;8.90;1.00;;;;;;5041734;28;20466;-72
2021/05/31 02:09:33;;;;;;;6.60;3.77;;;8.80;1.00;;;;;;5051195;28;20837;-72
2021/05/31 02:12:06;;;;;;;7.57;3.70;;;8.80;1.00;;;;;;5053086;28;20666;-72
2021/05/31 02:14:59;;;;;;;7.90;4.13;;;8.80;1.00;;;;;;5057222;28;20160;-72
2021/05/31 02:17:37;;;;;;;5.60;3.63;;;8.80;1.00;;;;;;5043218;28;20430;-73
2021/05/31 02:20:17;;;;;;;9.83;3.80;;;8.70;1.00;;;;;;5037355;28;20443;-73
2021/05/31 02:22:56;;;;;;;7.23;4.00;;;8.70;1.00;;;;;;5037310;28;20449;-73
2021/05/31 02:25:31;;;;;;;8.23;3.53;;;8.70;1.00;;;;;;5037539;28;20773;-74
2021/05/31 02:28:06;;;;;;;6.63;3.80;;;8.70;1.00;;;;;;5036948;28;20386;-73
2021/05/31 02:30:32;;;;;;;10.33;4.40;;;8.70;1.00;;;;;;5035669;28;20415;-73
2021/05/31 02:33:00;;;;;;;8.53;4.00;;;8.70;1.00;;;;;;5037213;28;20419;-72
2021/05/31 02:35:28;;;;;;;6.83;3.80;;;8.60;1.00;;;;;;5036660;28;20419;-72
2021/05/31 02:37:55;;;;;;;14.33;3.93;;;8.60;1.00;;;;;;5036656;28;20399;-72
2021/05/31 02:40:25;;;;;;;6.57;4.17;;;8.60;1.00;;;;;;5036988;28;20435;-72
2021/05/31 02:43:03;;;;;;;6.53;3.47;;;8.60;1.00;;;;;;5036612;28;20451;-72
2021/05/31 02:45:29;;;;;;;7.20;3.80;;;8.60;1.00;;;;;;5036501;28;20452;-72
2021/05/31 02:48:06;;;;;;;6.33;3.97;;;8.60;1.00;;;;;;5036885;28;20498;-73
2021/05/31 02:50:59;;;;;;;5.27;4.00;;;8.50;1.00;;;;;;5036690;28;20395;-73
2021/05/31 02:53:26;;;;;;;6.17;3.33;;;8.50;1.00;;;;;;5036509;28;20448;-73
2021/05/31 02:56:07;;;;;;;7.50;3.17;;;8.50;1.00;;;;;;5036640;28;20400;-73
2021/05/31 02:58:59;;;;;;;6.70;3.70;;;8.50;1.00;;;;;;5036657;28;20395;-73
2021/05/31 03:01:36;;;;;;;4.13;3.20;;;8.50;1.00;;;;;;5041745;28;20462;-73
2021/05/31 03:04:23;;;;;;;13.93;3.43;;;8.40;1.00;;;;;;5051125;28;20962;-72
2021/05/31 03:07:00;;;;;;;6.90;3.60;;;8.40;1.00;;;;;;5050534;28;20442;-72
2021/05/31 03:09:25;;;;;;;8.07;3.90;;;8.40;1.00;;;;;;5054046;28;20410;-72
2021/05/31 03:11:54;;;;;;;3.93;3.40;;;8.40;1.00;;;;;;5054334;28;20417;-72
2021/05/31 03:14:24;;;;;;;6.90;3.70;;;8.40;1.00;;;;;;5056029;28;20168;-72
2021/05/31 03:16:54;;;;;;;6.50;3.77;;;8.40;1.00;;;;;;5055980;28;20390;-72
2021/05/31 03:19:23;;;;;;;5.40;3.20;;;8.40;1.00;;;;;;5056251;28;20398;-72
2021/05/31 03:21:49;;;;;;;4.80;3.10;;;;;;;;;;5036642;28;20455;-72
2021/05/31 03:24:16;;;;;;;7.97;3.50;;;;;;;;;;5053509;28;20410;-72
2021/05/31 03:26:42;;;;;;;6.07;3.63;;;;;;;;;;5055790;28;20858;-71
2021/05/31 03:29:18;;;;;;;5.87;4.00;;;8.40;1.00;;;;;;5037284;28;20954;-72
2021/05/31 03:32:00;;;;;;;4.90;3.50;;;8.30;1.00;;;;;;5035947;28;20418;-72
2021/05/31 03:34:27;;;;;;;8.30;4.03;;;8.30;1.00;;;;;;5036529;28;20478;-73
2021/05/31 03:36:52;;;;;;;7.47;3.17;;;8.30;1.00;;;;;;5035641;28;20511;-73
2021/05/31 03:39:18;;;;;;;4.17;3.17;;;8.30;1.00;;;;;;5035921;28;20427;-73
2021/05/31 03:41:48;;;;;;;5.63;3.33;;;8.40;1.00;;;;;;5035942;28;20192;-73
2021/05/31 03:44:30;;;;;;;6.80;3.90;;;8.40;1.00;;;;;;5035419;28;20256;-73
2021/05/31 03:47:00;;;;;;;14.93;3.80;;;8.30;1.00;;;;;;5035662;28;20502;-73
2021/05/31 03:49:25;;;;;;;4.20;3.43;;;8.30;1.00;;;;;;5035956;28;20392;-72
2021/05/31 03:51:51;;;;;;;6.50;3.53;;;;;;;;;;5035227;28;20481;-72
2021/05/31 03:54:18;;;;;;;8.43;3.50;;;;;;;;;;5035359;28;20176;-72
2021/05/31 03:56:44;;;;;;;6.60;4.03;;;8.40;1.00;;;;;;5036299;28;20466;-72
2021/05/31 03:59:25;;;;;;;4.47;3.27;;;8.40;1.00;;;;;;5049571;28;20414;-72
2021/05/31 04:01:52;;;;;;;12.77;4.50;;;8.50;1.00;;;;;;5040550;28;20670;-72
2021/05/31 04:04:39;;;;;;;7.47;3.90;;;8.50;1.00;;;;;;5035557;28;20728;-73
2021/05/31 04:12:44;;;;;;;5.30;3.13;;;8.50;1.00;;;;;;5037901;28;20422;-73
2021/05/31 04:15:12;;;;;;;6.10;3.60;;;8.60;1.00;;;;;;5034897;28;20407;-73
2021/05/31 04:17:38;;;;;;;4.57;3.50;;;;;;;;;;5035126;28;20168;-72
2021/05/31 04:20:05;;;;;;;7.03;3.97;;;;;;;;;;5041621;28;20758;-72
2021/05/31 04:22:48;;;;;;;7.13;4.20;;;8.70;1.00;;;;;;5053873;28;20452;-72
2021/05/31 04:25:18;;;;;;;9.97;4.40;;;8.80;1.00;;;;;;5034573;28;20391;-72
2021/05/31 04:27:44;;;;;;;6.70;3.83;;;8.80;1.00;;;;;;5051214;28;20425;-72
2021/05/31 04:30:12;;;;;;;7.60;4.00;;;8.90;1.00;;;;;;5054393;28;20469;-72
2021/05/31 04:32:42;;;;;;;6.47;4.13;;;8.90;1.00;;;;;;5054536;28;20437;-72
2021/05/31 04:35:08;;;;;;;5.43;3.70;;;9.00;1.00;;;;;;5051998;28;20430;-73
2021/05/31 04:37:56;;;;;;;5.80;4.03;;;9.00;1.00;;;;;;5034391;28;20391;-73
2021/05/31 04:40:22;;;;;;;7.13;3.90;;;9.10;1.00;;;;;;5034778;28;20418;-76
2021/05/31 04:42:48;;;;;;;7.27;3.77;;;9.10;1.00;;;;;;5034136;28;20468;-76
2021/05/31 04:45:30;;;;;;;8.17;4.03;;;9.20;1.00;;;;;;5034325;28;20514;-77
2021/05/31 04:47:55;;;;;;;12.30;3.93;;;9.30;1.00;;;;;;5033967;28;20543;-77
2021/05/31 04:50:24;;;;;;;9.03;4.20;;;9.40;1.00;;;;;;5034401;28;20395;-76
2021/05/31 04:53:06;;;;;;;6.00;4.10;;;9.40;1.00;;;;;;5034202;28;20207;-76
2021/05/31 04:55:37;;;;;;;6.83;3.90;;;9.50;1.00;;;;;;5034529;28;20419;-77
2021/05/31 04:58:12;;;;;;;9.50;3.80;;;9.60;1.00;;;;;;5034269;28;20399;-76
2021/05/31 05:00:42;;;;;;;7.03;4.27;;;9.70;1.00;;;;;;5049677;28;20897;-76
2021/05/31 05:03:07;;;;;;;8.10;4.23;;;9.70;1.00;;;;;;5039970;28;20469;-76
2021/05/31 05:08:55;;;;;;;9.40;3.93;;;;;;;;;;5033510;28;20672;-78
2021/05/31 05:14:43;;;;;;;7.07;4.40;;;10.20;1.00;;;;;;5033736;28;20379;-76
2021/05/31 05:17:12;;;;;;;10.77;4.50;;;10.30;1.00;;;;;;5032426;28;20415;-75
2021/05/31 05:19:48;;;;;;;13.13;4.77;;;10.50;1.00;;;;;;5035844;28;20266;-74
2021/05/31 05:22:24;;;;;;;7.57;4.70;;;10.60;1.00;;;;;;5043848;28;20453;-74
2021/05/31 05:25:00;;;;;;;10.73;4.87;;;10.70;1.00;;;;;;5033799;28;20815;-74
2021/05/31 05:27:26;;;;;;;6.30;3.73;;;;;;;;;;5034110;28;20398;-74
2021/05/31 05:30:13;;;;;;;6.53;4.00;;;11.00;1.00;;;;;;5049957;28;20498;-74
2021/05/31 05:32:47;;;;;;;9.50;4.50;;;11.10;1.00;;;;;;5053485;28;20401;-74
2021/05/31 05:35:21;;;;;;;7.53;4.97;;;11.20;1.00;;;;;;5053803;28;20953;-71
2021/05/31 05:48:31;;;;;;;7.87;3.67;;;11.90;1.00;;;;;;5035977;28;20413;-71
2021/05/31 05:51:07;;;;;;;9.83;3.80;;;12.00;1.00;;;;;;5048497;28;20414;-71
2021/05/31 05:53:35;;;;;;;8.33;4.07;;;12.30;1.00;;;;;;5054372;28;20613;-73
2021/05/31 05:56:02;;;;;;;28.57;5.57;;;;;;;;;;5037145;28;20538;-71
2021/05/31 05:58:29;;;;;;;6.00;3.63;;;12.60;1.00;;;;;;5043044;28;20443;-71
2021/05/31 06:00:59;;;;;;;4.03;3.30;;;12.80;1.00;;;;;;5055908;28;20425;-71
2021/05/31 06:03:30;;;;;;;5.40;3.57;;;;;;;;;;5057006;28;20471;-71
2021/05/31 06:08:59;;;;;;;8.40;3.70;;;13.30;1.00;;;;;;5056870;28;20436;-75
2021/05/31 06:11:36;;;;;;;6.30;3.27;;;13.30;1.00;;;;;;5039126;28;20411;-74
2021/05/31 06:14:35;;;;;;;17.00;4.20;;;13.50;1.00;;;;;;5042931;28;20198;-75
2021/05/31 06:17:29;;;;;;;9.13;3.63;;;13.70;1.00;;;;;;5057257;28;20380;-75
2021/05/31 06:23:17;;;;;;;5.83;3.43;;;;;;;;;;5056269;28;20468;-75
2021/05/31 06:26:12;;;;;;;16.07;3.90;;;14.10;1.00;;;;;;5057119;28;20436;-74
2021/05/31 06:28:42;;;;;;;25.77;3.77;;;14.30;1.00;;;;;;5056682;28;20881;-74
2021/05/31 06:31:08;;;;;;;10.63;3.57;;;;;;;;;;5055584;28;20505;-75
2021/05/31 06:33:34;;;;;;;11.97;3.20;;;;;;;;;;5044113;28;20414;-75
2021/05/31 06:36:04;;;;;;;4.13;2.87;;;;;;;;;;5035784;28;20370;-74
2021/05/31 06:38:42;;;;;;;6.43;3.33;;;14.70;1.00;;;;;;5035950;28;20454;-75
2021/05/31 06:41:08;;;;;;;5.27;2.77;;;;;;;;;;5035431;28;20414;-75
2021/05/31 06:43:34;;;;;;;4.70;3.10;;;;;;;;;;5034048;28;20501;-75
2021/05/31 06:46:01;;;;;;;7.03;3.17;;;;;;;;;;5035516;28;20388;-75
2021/05/31 06:48:27;;;;;;;4.80;3.00;;;;;;;;;;5035361;28;20386;-75
2021/05/31 06:50:53;;;;;;;3.60;3.00;;;;;;;;;;5037397;28;20404;-75
2021/05/31 06:53:20;;;;;;;5.33;2.37;;;15.40;1.00;;;;;;5055153;28;20418;-75
2021/05/31 06:55:46;;;;;;;8.27;3.30;;;;;;;;;;5055192;28;20760;-75
2021/05/31 06:58:12;;;;;;;8.40;2.57;;;;;;;;;;5048931;28;20418;-75
2021/05/31 07:00:39;;;;;;;6.93;3.10;;;;;;;;;;5044914;28;20969;-76
2021/05/31 07:03:05;;;;;;;5.20;2.67;;;15.90;1.00;;;;;;5075206;28;20441;-75
2021/05/31 07:05:31;;;;;;;4.50;2.80;;;;;;;;;;5054837;28;20874;-75
2021/05/31 07:07:59;;;;;;;6.50;3.00;;;;;;;;;;5034758;28;20395;-75
2021/05/31 07:10:27;;;;;;;9.33;3.10;;;;;;;;;;5036367;28;20956;-75
2021/05/31 07:12:54;;;;;;;6.07;3.30;;;;;;;;;;5034962;28;20453;-75
2021/05/31 07:15:20;;;;;;;3.83;2.47;;;;;;;;;;5043793;28;20433;-76
2021/05/31 07:17:47;;;;;;;7.33;2.93;;;;;;;;;;5053804;28;20496;-76
2021/05/31 07:20:14;;;;;;;4.60;2.23;;;16.70;1.00;;;;;;5045204;28;20855;-74
2021/05/31 07:22:42;;;;;;;10.00;2.77;;;16.90;1.00;;;;;;5041863;28;20458;-78
2021/05/31 07:25:08;;;;;;;13.90;3.47;;;16.90;1.00;;;;;;5034155;28;20775;-75
2021/05/31 07:27:34;;;;;;;4.67;3.13;;;;;;;;;;5034654;28;20398;-75
2021/05/31 07:30:01;;;;;;;7.93;3.07;;;;;;;;;;5034458;28;20387;-74
2021/05/31 07:32:27;;;;;;;3.80;3.07;;;;;;;;;;5041495;28;20465;-74
2021/05/31 07:34:53;;;;;;;4.87;2.90;;;;;;;;;;5054381;28;20396;-72
2021/05/31 07:37:19;;;;;;;6.73;2.63;;;17.30;1.00;;;;;;5047138;28;20525;-74
2021/05/31 07:39:45;;;;;;;4.90;3.03;;;;;;;;;;5054337;28;20403;-74
2021/05/31 07:42:11;;;;;;;4.63;2.63;;;;;;;;;;5044661;28;20172;-74
2021/05/31 07:44:37;;;;;;;9.27;2.87;;;;;;;;;;5034107;28;20393;-74
2021/05/31 07:47:02;;;;;;;3.67;2.70;;;17.80;1.00;;;;;;5034831;28;20416;-74
2021/05/31 07:49:28;;;;;;;3.70;2.27;;;17.90;1.00;;;;;;5034332;28;20403;-74
2021/05/31 07:51:55;;;;;;;3.10;2.40;;;;;;;;;;5034226;28;20281;-74
2021/05/31 07:54:23;;;;;;;4.10;2.23;;;18.20;1.00;;;;;;5043752;28;20890;-74
2021/05/31 07:56:49;;;;;;;2.27;1.93;;;18.10;1.00;;;;;;5036340;28;20733;-74
2021/05/31 07:59:15;;;;;;;5.10;2.90;;;18.20;1.00;;;;;;5035638;28;20847;-76
2021/05/31 08:01:41;;;;;;;4.17;3.00;;;;;;;;;;5033004;28;20425;-75
2021/05/31 08:04:07;;;;;;;5.60;2.10;;;18.40;1.00;;;;;;5049824;28;20182;-74
2021/05/31 08:06:34;;;;;;;3.20;2.03;;;18.50;1.00;;;;;;5052747;28;20843;-75
2021/05/31 08:09:00;;;;;;;12.77;2.43;;;;;;;;;;5053377;28;20475;-74
2021/05/31 08:11:26;;;;;;;2.53;1.87;;;18.80;1.00;;;;;;5053397;28;20449;-74
2021/05/31 08:13:52;;;;;;;4.70;1.90;;;;;;;;;;5040138;28;20494;-74
2021/05/31 08:16:18;;;;;;;6.23;2.00;;;;;;;;;;5033785;28;20209;-71
2021/05/31 08:18:45;;;;;;;3.17;1.97;;;18.90;1.00;;;;;;5032408;28;20834;-71
2021/05/31 08:21:11;;;;;;;3.30;2.00;;;18.90;1.00;;;;;;5034145;28;20418;-72
2021/05/31 08:23:37;;;;;;;2.07;1.87;;;;;;;;;;5033511;28;20935;-72
2021/05/31 08:26:03;;;;;;;2.60;2.17;;;19.00;1.00;;;;;;5033552;28;20373;-71
2021/05/31 08:28:29;;;;;;;2.30;1.80;;;19.20;1.00;;;;;;5039398;28;20416;-71
2021/05/31 08:30:55;;;;;;;3.13;1.73;;;;;;;;;;5044444;28;20905;-71
2021/05/31 08:33:21;;;;;;;6.00;2.40;;;19.30;1.00;;;;;;5033240;28;20547;-71
2021/05/31 08:35:47;;;;;;;7.93;2.07;;;;;;;;;;5040764;28;20469;-74
2021/05/31 08:38:13;;;;;;;10.20;3.00;;;19.30;1.00;;;;;;5053198;28;20242;-72
2021/05/31 08:40:39;;;;;;;4.90;2.10;;;;;;;;;;5047190;28;20449;-72
2021/05/31 08:43:05;;;;;;;5.00;2.30;;;;;;;;;;5033367;28;20386;-72
2021/05/31 08:45:32;;;;;;;2.43;2.13;;;19.60;1.00;;;;;;5052971;28;20376;-71
2021/05/31 08:47:59;;;;;;;5.90;1.80;;;19.70;1.00;;;;;;5051943;28;20428;-71
2021/05/31 08:50:31;;;;;;;9.47;2.40;;;19.90;1.00;;;;;;5052975;28;20569;-71
2021/05/31 08:52:57;;;;;;;2.10;1.90;;;20.00;1.00;;;;;;5053371;28;20746;-71
2021/05/31 08:55:27;;;;;;;3.23;1.50;;;20.10;1.00;;;;;;5034244;28;20897;-71
2021/05/31 08:57:53;;;;;;;2.13;1.80;;;20.00;1.00;;;;;;5032786;28;20813;-71
2021/05/31 09:00:24;;;;;;;2.23;2.03;;;;;;;;;;5031755;28;20442;-71
2021/05/31 09:02:50;;;;;;;5.23;1.50;;;;;;;;;;5043591;28;20522;-71
2021/05/31 09:05:27;;;;;;;5.07;1.90;;;20.40;1.00;;;;;;5033191;28;20474;-71
2021/05/31 09:07:52;;;;;;;6.07;2.30;;;20.50;1.00;;;;;;5033124;28;20765;-71
2021/05/31 09:10:19;;;;;;;2.87;2.13;;;20.50;1.00;;;;;;5041948;28;20437;-72
2021/05/31 09:12:46;;;;;;;5.13;2.00;;;20.60;1.00;;;;;;5052529;28;20184;-71
2021/05/31 09:15:13;;;;;;;3.80;2.00;;;20.70;1.00;;;;;;5050979;28;20525;-71
2021/05/31 09:17:42;;;;;;;4.07;1.97;;;20.80;1.00;;;;;;5052637;28;20387;-74
2021/05/31 09:20:09;;;;;;;3.33;1.93;;;20.90;1.00;;;;;;5040214;28;20415;-74
2021/05/31 09:22:49;;;;;;;2.93;2.17;;;20.90;1.00;;;;;;5032317;28;20470;-71
2021/05/31 09:25:24;;;;;;;2.67;1.93;;;20.90;1.00;;;;;;5032192;28;20843;-71
2021/05/31 09:27:51;;;;;;;2.60;1.80;;;20.90;1.00;;;;;;5032852;28;20546;-71
2021/05/31 09:30:17;;;;;;;10.60;2.77;;;21.00;1.00;;;;;;5032356;28;20404;-71
2021/05/31 09:32:52;;;;;;;3.90;2.10;;;21.00;1.00;;;;;;5031141;28;20456;-71
2021/05/31 09:35:22;;;;;;;5.40;2.30;;;21.10;1.00;;;;;;5034272;28;20513;-74
2021/05/31 09:37:49;;;;;;;3.00;1.90;;;21.10;1.00;;;;;;5034149;28;20495;-71
2021/05/31 09:40:23;;;;;;;5.13;3.00;;;21.10;1.00;;;;;;5032714;28;20415;-71
2021/05/31 09:42:58;;;;;;;2.67;2.20;;;21.20;1.00;;;;;;5032700;28;20474;-71
2021/05/31 09:45:25;;;;;;;2.97;2.30;;;21.30;1.00;;;;;;5034015;28;20428;-71
2021/05/31 09:47:51;;;;;;;2.70;2.23;;;21.40;1.00;;;;;;5034725;28;20457;-72
2021/05/31 09:50:23;;;;;;;8.50;2.80;;;21.40;1.00;;;;;;5050920;28;20940;-71
2021/05/31 09:53:00;;;;;;;2.07;1.87;;;21.50;1.00;;;;;;5041994;28;20468;-74
2021/05/31 09:55:32;;;;;;;2.13;1.83;;;21.50;1.00;;;;;;5051301;28;20506;-74
2021/05/31 09:57:58;;;;;;;7.80;2.33;;;;;;;;;;5051732;28;20399;-74
2021/05/31 10:00:28;;;;;;;2.50;1.80;;;;;;;;;;5051302;28;20428;-74
2021/05/31 10:03:04;;;;;;;4.30;1.97;;;;;;;;;;5031929;28;20402;-74
2021/05/31 10:08:40;;;;;;;7.33;2.07;;;21.80;1.00;;;;;;5043991;28;20489;-74
2021/05/31 10:10:51;;;;;;;3.27;1.63;;;;;;;;;;5049544;28;20458;-74
2021/05/31 10:13:18;;;;;;;2.50;1.80;;;22.00;1.00;;;;;;5052241;28;20923;-74
2021/05/31 10:15:44;;;;;;;8.03;1.93;;;;;;;;;;5052219;28;20487;-74
2021/05/31 10:18:13;;;;;;;2.83;2.20;;;22.20;1.00;;;;;;5051695;28;20412;-74
2021/05/31 10:20:39;;;;;;;2.23;2.00;;;;;;;;;;5052219;28;20401;-74
2021/05/31 10:23:08;;;;;;;15.47;2.60;;;22.30;1.00;;;;;;5052364;28;20400;-74
2021/05/31 10:25:37;;;;;;;2.23;1.83;;;22.30;1.00;;;;;;5052291;28;20405;-74
2021/05/31 10:28:07;;;;;;;5.67;2.40;;;22.20;1.00;;;;;;5052413;28;20478;-74
2021/05/31 10:30:44;;;;;;;6.07;2.37;;;22.30;1.00;;;;;;5051722;28;20404;-74
2021/05/31 10:33:17;;;;;;;5.00;2.30;;;22.40;1.00;;;;;;5052248;28;20475;-72
2021/05/31 10:35:43;;;;;;;2.20;2.00;;;;;;;;;;5044714;28;20429;-71
2021/05/31 10:38:20;;;;;;;2.30;1.90;;;22.40;1.00;;;;;;5036277;28;20409;-75
2021/05/31 10:40:48;;;;;;;2.90;2.00;;;22.50;1.00;;;;;;5035841;28;20547;-74
2021/05/31 10:43:19;;;;;;;2.50;1.63;;;22.60;1.00;;;;;;5047053;28;20863;-75
2021/05/31 10:45:46;;;;;;;3.80;2.07;;;22.60;1.00;;;;;;5053378;28;20428;-75
2021/05/31 10:48:21;;;;;;;2.33;1.87;;;22.80;1.00;;;;;;5048845;28;20779;-76
2021/05/31 10:50:47;;;;;;;7.60;2.40;;;;;;;;;;5049753;28;20501;-73
2021/05/31 10:53:30;;;;;;;7.03;2.50;;;22.80;1.00;;;;;;5055794;28;20502;-72
2021/05/31 10:56:04;;;;;;;3.53;2.37;;;22.80;1.00;;;;;;5050775;28;20878;-72
2021/05/31 10:58:32;;;;;;;3.53;2.30;;;22.90;1.00;;;;;;5035434;28;20403;-72
2021/05/31 11:01:05;;;;;;;3.03;2.37;;;22.80;1.00;;;;;;5046815;28;20429;-72
2021/05/31 11:03:42;;;;;;;4.40;2.20;;;22.90;1.00;;;;;;5042066;28;20774;-71
2021/05/31 11:06:22;;;;;;;28.93;5.63;;;22.90;1.00;;;;;;5045537;28;21033;-72
2021/05/31 11:09:14;;;;;;;2.83;2.10;;;23.00;1.00;;;;;;5054932;28;20511;-72
2021/05/31 11:11:49;;;;;;;5.87;2.10;;;22.80;1.00;;;;;;5035363;28;20459;-72
2021/05/31 11:14:33;;;;;;;10.27;2.70;;;22.90;1.00;;;;;;5054586;28;20404;-72
2021/05/31 11:17:10;;;;;;;4.03;2.43;;;23.00;1.00;;;;;;5035017;28;20501;-73
2021/05/31 11:19:40;;;;;;;2.33;2.10;;;23.10;1.00;;;;;;5035059;28;20875;-72
2021/05/31 11:22:13;;;;;;;4.60;2.30;;;23.10;1.00;;;;;;5034946;28;20487;-72
2021/05/31 11:24:39;;;;;;;7.27;2.00;;;;;;;;;;5038180;28;20442;-73
2021/05/31 11:27:08;;;;;;;3.30;2.30;;;23.40;1.00;;;;;;5056773;28;20562;-71
2021/05/31 11:29:35;;;;;;;2.50;2.07;;;23.40;1.00;;;;;;5036652;28;20473;-72
2021/05/31 11:32:01;;;;;;;3.80;2.13;;;;;;;;;;5049536;28;20466;-71
2021/05/31 11:34:27;;;;;;;5.33;2.07;;;23.40;1.00;;;;;;5054571;28;20394;-69
2021/05/31 11:36:54;;;;;;;7.70;2.37;;;23.50;1.00;;;;;;5051600;28;20783;-71
2021/05/31 11:39:20;;;;;;;4.00;2.40;;;;;;;;;;5044233;28;20426;-71
2021/05/31 11:41:50;;;;;;;2.70;2.33;;;23.70;1.00;;;;;;5054636;28;20483;-71
2021/05/31 11:44:28;;;;;;;2.80;2.23;;;23.70;1.00;;;;;;5054405;28;20435;-71
2021/05/31 11:46:56;;;;;;;3.93;2.53;;;23.80;1.00;;;;;;5053702;28;20481;-72
2021/05/31 11:49:24;;;;;;;1.80;1.70;;;23.80;1.00;;;;;;5045995;28;20926;-72
2021/05/31 11:52:04;;;;;;;2.73;1.93;;;23.80;1.00;;;;;;5061073;28;20463;-72
2021/05/31 11:54:33;;;;;;;3.60;1.97;;;23.90;1.00;;;;;;5054534;28;20421;-72
2021/05/31 11:57:04;;;;;;;3.37;1.80;;;24.00;1.00;;;;;;5049029;28;20432;-72
2021/05/31 11:59:43;;;;;;;1.83;1.73;;;24.00;1.00;;;;;;5041963;28;20799;-72
2021/05/31 12:02:13;;;;;;;10.10;2.63;;;24.00;1.00;;;;;;5045796;28;20427;-72
2021/05/31 12:04:40;;;;;;;2.10;1.80;;;;;;;;;;5035629;28;20485;-72
2021/05/31 12:07:10;;;;;;;8.33;2.53;;;;;;;;;;5052366;28;20496;-72
2021/05/31 12:09:42;;;;;;;2.27;1.90;;;24.30;1.00;;;;;;5036657;28;20796;-74
2021/05/31 12:12:09;;;;;;;2.87;2.00;;;;;;;;;;5036655;28;20551;-77
2021/05/31 12:14:43;;;;;;;2.10;1.90;;;24.50;1.00;;;;;;5033912;28;20397;-77
2021/05/31 12:17:11;;;;;;;9.37;2.30;;;;;;;;;;5033666;28;20406;-77
2021/05/31 12:19:37;;;;;;;2.97;1.87;;;;;;;;;;5033787;28;20409;-76
2021/05/31 12:22:04;;;;;;;11.63;3.10;;;24.60;1.00;;;;;;5032771;28;20838;-75
2021/05/31 12:24:35;;;;;;;5.47;2.23;;;24.60;1.00;;;;;;5053621;28;20934;-72
2021/05/31 12:27:01;;;;;;;24.37;4.27;;;;;;;;;;5047861;28;20462;-75
2021/05/31 12:29:34;;;;;;;2.40;2.07;;;24.50;1.00;;;;;;5044395;28;20429;-74
2021/05/31 12:32:03;;;;;;;2.40;2.13;;;24.60;1.00;;;;;;5052971;28;20468;-75
2021/05/31 12:34:28;;;;;;;4.83;1.90;;;24.60;1.00;;;;;;5051913;28;20409;-75
2021/05/31 12:36:54;;;;;;;5.10;2.00;;;;;;;;;;5053332;28;20753;-75
2021/05/31 12:39:21;;;;;;;4.23;2.30;;;24.60;1.00;;;;;;5053758;28;20619;-72
2021/05/31 12:41:47;;;;;;;4.30;2.07;;;24.60;1.00;;;;;;5053431;28;20413;-73
2021/05/31 12:44:13;;;;;;;8.60;2.40;;;24.80;1.00;;;;;;5053295;28;20890;-72
2021/05/31 12:46:41;;;;;;;6.03;2.40;;;24.80;1.00;;;;;;5053224;28;20421;-72
2021/05/31 12:49:07;;;;;;;4.97;2.37;;;24.90;1.00;;;;;;5053114;28;20178;-72
2021/05/31 12:51:33;;;;;;;1.90;1.80;;;;;;;;;;5053024;28;20835;-72
2021/05/31 12:54:00;;;;;;;10.70;2.23;;;;;;;;;;5053601;28;20200;-75
2021/05/31 12:56:29;;;;;;;3.17;1.90;;;;;;;;;;5052627;28;20497;-75
2021/05/31 12:59:05;;;;;;;7.83;2.13;;;25.00;1.00;;;;;;5053100;28;20390;-75
2021/05/31 13:01:32;;;;;;;3.90;2.10;;;25.10;1.00;;;;;;5053034;28;20383;-75
2021/05/31 13:03:58;;;;;;;5.33;2.27;;;25.10;1.00;;;;;;5044619;28;20525;-75
2021/05/31 13:06:38;;;;;;;3.17;1.97;;;;;;;;;;5031896;28;20435;-75
2021/05/31 13:09:05;;;;;;;3.40;2.50;;;25.20;1.00;;;;;;5033259;28;20426;-72
2021/05/31 13:11:45;;;;;;;3.03;1.90;;;25.20;1.00;;;;;;5031727;28;20775;-72
2021/05/31 13:14:23;;;;;;;2.00;1.80;;;25.30;1.00;;;;;;5033142;28;20406;-75
2021/05/31 13:17:00;;;;;;;3.17;2.00;;;25.40;1.00;;;;;;5033028;28;20813;-75
2021/05/31 13:19:28;;;;;;;1.93;1.70;;;25.50;1.00;;;;;;5032901;28;20399;-75
2021/05/31 13:22:00;;;;;;;4.67;1.80;;;25.70;1.00;;;;;;5036874;28;20504;-75
2021/05/31 13:24:30;;;;;;;4.50;2.10;;;25.80;1.00;;;;;;5052851;28;20410;-72
2021/05/31 13:27:07;;;;;;;2.60;1.57;;;25.70;1.00;;;;;;5052638;28;20909;-72
2021/05/31 13:29:33;;;;;;;2.03;1.80;;;25.90;1.00;;;;;;5052498;28;20436;-72
2021/05/31 13:32:06;;;;;;;2.33;1.50;;;26.00;1.00;;;;;;5052626;28;20474;-72
2021/05/31 13:34:36;;;;;;;2.30;2.10;;;26.10;1.00;;;;;;5042693;28;20208;-72
2021/05/31 13:37:12;;;;;;;2.60;1.97;;;26.10;1.00;;;;;;5031626;28;20486;-72
2021/05/31 13:39:49;;;;;;;3.00;2.10;;;26.00;1.00;;;;;;5033176;28;20907;-75
2021/05/31 13:42:15;;;;;;;1.90;1.57;;;;;;;;;;5032824;28;20408;-75
2021/05/31 13:44:41;;;;;;;1.90;1.70;;;26.00;1.00;;;;;;5032808;28;20807;-75
2021/05/31 13:47:07;;;;;;;2.70;2.10;;;26.10;1.00;;;;;;5032696;28;20439;-75
2021/05/31 13:49:33;;;;;;;8.30;1.90;;;;;;;;;;5032735;28;20168;-75
2021/05/31 13:51:58;;;;;;;1.60;1.50;;;26.10;1.00;;;;;;5032437;28;20271;-75
2021/05/31 13:54:25;;;;;;;3.43;1.77;;;;;;;;;;5033492;28;20429;-75
2021/05/31 13:56:51;;;;;;;1.73;1.63;;;26.00;1.00;;;;;;5032716;28;20227;-75
2021/05/31 13:59:18;;;;;;;2.40;2.20;;;25.90;1.00;;;;;;5032646;28;20431;-75
2021/05/31 14:01:43;;;;;;;15.93;2.80;;;25.80;1.00;;;;;;5032519;28;20432;-72
2021/05/31 14:04:10;;;;;;;2.47;1.90;;;25.90;1.00;;;;;;5032592;28;20433;-72
2021/05/31 14:06:36;;;;;;;1.53;1.43;;;;;;;;;;5040080;28;20266;-76
2021/05/31 14:09:04;;;;;;;2.50;1.83;;;26.00;1.00;;;;;;5033778;28;20430;-74
2021/05/31 14:11:31;;;;;;;2.53;1.60;;;;;;;;;;5036565;28;20760;-73
2021/05/31 14:13:57;;;;;;;21.37;2.73;;;26.10;1.00;;;;;;5036306;28;20454;-71